sensor_id;sensor_type;location;lat;lon;timestamp;temperature;humidity
52203;DHT22;38173;52.850;6.970;2023-02-01T00:00:14;5.30;99.90
52203;DHT22;38173;52.850;6.970;2023-02-01T00:02:40;5.30;99.90
52203;DHT22;38173;52.850;6.970;2023-02-01T00:05:07;5.40;99.90
52203;DHT22;38173;52.850;6.970;2023-02-01T00:07:34;5.30;99.90
52203;DHT22;38173;52.850;6.970;2023-02-01T00:10:01;5.30;99.90
52203;DHT22;38173;52.850;6.970;2023-02-01T00:12:28;5.40;99.90
52203;DHT22;38173;52.850;6.970;2023-02-01T00:14:54;5.40;99.90
52203;DHT22;38173;52.850;6.970;2023-02-01T00:17:26;5.30;99.90
52203;DHT22;38173;52.850;6.970;2023-02-01T00:19:53;5.30;99.90
52203;DHT22;38173;52.850;6.970;2023-02-01T00:22:19;5.30;99.90
52203;DHT22;38173;52.850;6.970;2023-02-01T00:24:57;5.30;99.90
52203;DHT22;38173;52.850;6.970;2023-02-01T00:27:26;5.40;99.90
52203;DHT22;38173;52.850;6.970;2023-02-01T00:29:53;5.40;99.90
52203;DHT22;38173;52.850;6.970;2023-02-01T00:32:19;5.40;99.90
52203;DHT22;38173;52.850;6.970;2023-02-01T00:34:45;5.40;99.90
52203;DHT22;38173;52.850;6.970;2023-02-01T00:37:13;5.40;99.90
52203;DHT22;38173;52.850;6.970;2023-02-01T00:39:40;5.40;99.90
52203;DHT22;38173;52.850;6.970;2023-02-01T00:42:07;5.40;99.90
52203;DHT22;38173;52.850;6.970;2023-02-01T00:44:36;5.40;99.90
52203;DHT22;38173;52.850;6.970;2023-02-01T00:47:02;5.40;99.90
52203;DHT22;38173;52.850;6.970;2023-02-01T00:49:29;5.50;99.90
52203;DHT22;38173;52.850;6.970;2023-02-01T00:51:54;5.40;99.90
52203;DHT22;38173;52.850;6.970;2023-02-01T00:54:20;5.50;99.90
52203;DHT22;38173;52.850;6.970;2023-02-01T00:56:47;5.50;99.90
52203;DHT22;38173;52.850;6.970;2023-02-01T00:59:20;5.50;99.90
52203;DHT22;38173;52.850;6.970;2023-02-01T01:01:45;5.50;99.90
52203;DHT22;38173;52.850;6.970;2023-02-01T01:04:11;5.60;99.90
52203;DHT22;38173;52.850;6.970;2023-02-01T01:06:42;5.60;99.90
52203;DHT22;38173;52.850;6.970;2023-02-01T01:09:07;5.60;99.90
52203;DHT22;38173;52.850;6.970;2023-02-01T01:11:35;5.60;99.90
52203;DHT22;38173;52.850;6.970;2023-02-01T01:14:03;5.60;99.90
52203;DHT22;38173;52.850;6.970;2023-02-01T01:16:30;5.70;99.90
52203;DHT22;38173;52.850;6.970;2023-02-01T01:18:56;5.70;99.90
52203;DHT22;38173;52.850;6.970;2023-02-01T01:21:32;5.70;99.90
52203;DHT22;38173;52.850;6.970;2023-02-01T01:23:58;5.70;99.90
52203;DHT22;38173;52.850;6.970;2023-02-01T01:26:26;5.60;99.90
52203;DHT22;38173;52.850;6.970;2023-02-01T01:28:53;5.60;99.90
52203;DHT22;38173;52.850;6.970;2023-02-01T01:31:19;5.70;99.90
52203;DHT22;38173;52.850;6.970;2023-02-01T01:33:50;5.60;99.90
52203;DHT22;38173;52.850;6.970;2023-02-01T01:36:18;5.60;99.90
52203;DHT22;38173;52.850;6.970;2023-02-01T01:38:47;5.60;99.90
52203;DHT22;38173;52.850;6.970;2023-02-01T01:41:14;5.60;99.90
52203;DHT22;38173;52.850;6.970;2023-02-01T01:43:51;5.60;99.90
52203;DHT22;38173;52.850;6.970;2023-02-01T01:46:18;5.60;99.90
52203;DHT22;38173;52.850;6.970;2023-02-01T01:48:44;5.60;99.90
52203;DHT22;38173;52.850;6.970;2023-02-01T01:51:11;5.60;99.90
52203;DHT22;38173;52.850;6.970;2023-02-01T01:53:41;5.70;99.90
52203;DHT22;38173;52.850;6.970;2023-02-01T01:56:09;5.60;99.90
52203;DHT22;38173;52.850;6.970;2023-02-01T01:58:35;5.60;99.90
52203;DHT22;38173;52.850;6.970;2023-02-01T02:01:02;5.60;99.90
52203;DHT22;38173;52.850;6.970;2023-02-01T02:03:46;5.70;99.90
52203;DHT22;38173;52.850;6.970;2023-02-01T02:06:31;5.70;99.90
52203;DHT22;38173;52.850;6.970;2023-02-01T02:08:58;5.70;99.90
52203;DHT22;38173;52.850;6.970;2023-02-01T02:11:23;5.60;99.90
52203;DHT22;38173;52.850;6.970;2023-02-01T02:13:50;5.60;99.90
52203;DHT22;38173;52.850;6.970;2023-02-01T02:42:29;5.40;99.90
52203;DHT22;38173;52.850;6.970;2023-02-01T02:45:21;5.30;99.90
52203;DHT22;38173;52.850;6.970;2023-02-01T02:48:15;5.30;99.90
52203;DHT22;38173;52.850;6.970;2023-02-01T02:50:55;5.30;99.90
52203;DHT22;38173;52.850;6.970;2023-02-01T02:56:26;5.20;99.90
52203;DHT22;38173;52.850;6.970;2023-02-01T02:59:14;5.20;99.90
52203;DHT22;38173;52.850;6.970;2023-02-01T03:02:01;5.10;99.90
52203;DHT22;38173;52.850;6.970;2023-02-01T03:04:45;5.10;99.90
52203;DHT22;38173;52.850;6.970;2023-02-01T03:07:13;5.10;99.90
52203;DHT22;38173;52.850;6.970;2023-02-01T03:09:39;5.10;99.90
52203;DHT22;38173;52.850;6.970;2023-02-01T03:12:08;5.10;99.90
52203;DHT22;38173;52.850;6.970;2023-02-01T03:15:07;5.00;99.90
52203;DHT22;38173;52.850;6.970;2023-02-01T03:17:38;5.10;99.90
52203;DHT22;38173;52.850;6.970;2023-02-01T03:20:04;5.10;99.90
52203;DHT22;38173;52.850;6.970;2023-02-01T03:22:37;5.10;99.90
52203;DHT22;38173;52.850;6.970;2023-02-01T03:27:35;5.10;99.90
52203;DHT22;38173;52.850;6.970;2023-02-01T03:30:09;5.10;99.90
52203;DHT22;38173;52.850;6.970;2023-02-01T03:32:39;5.10;99.90
52203;DHT22;38173;52.850;6.970;2023-02-01T03:35:30;5.20;99.90
52203;DHT22;38173;52.850;6.970;2023-02-01T03:38:19;5.20;99.90
52203;DHT22;38173;52.850;6.970;2023-02-01T03:40:51;5.20;99.90
52203;DHT22;38173;52.850;6.970;2023-02-01T03:43:46;5.30;99.90
52203;DHT22;38173;52.850;6.970;2023-02-01T03:46:04;5.30;99.90
52203;DHT22;38173;52.850;6.970;2023-02-01T03:48:34;5.30;99.90
52203;DHT22;38173;52.850;6.970;2023-02-01T03:51:04;5.30;99.90
52203;DHT22;38173;52.850;6.970;2023-02-01T03:53:30;5.30;99.90
52203;DHT22;38173;52.850;6.970;2023-02-01T03:55:56;5.30;99.90
52203;DHT22;38173;52.850;6.970;2023-02-01T03:58:22;5.30;99.90
52203;DHT22;38173;52.850;6.970;2023-02-01T04:00:53;5.30;99.90
52203;DHT22;38173;52.850;6.970;2023-02-01T04:03:20;5.30;99.90
52203;DHT22;38173;52.850;6.970;2023-02-01T04:05:47;5.30;99.90
52203;DHT22;38173;52.850;6.970;2023-02-01T04:08:13;5.30;99.90
52203;DHT22;38173;52.850;6.970;2023-02-01T04:10:39;5.30;99.90
52203;DHT22;38173;52.850;6.970;2023-02-01T04:13:06;5.30;99.90
52203;DHT22;38173;52.850;6.970;2023-02-01T04:15:32;5.30;99.90
52203;DHT22;38173;52.850;6.970;2023-02-01T04:18:02;5.30;99.90
52203;DHT22;38173;52.850;6.970;2023-02-01T04:20:29;5.30;99.90
52203;DHT22;38173;52.850;6.970;2023-02-01T04:23:03;5.30;99.90
52203;DHT22;38173;52.850;6.970;2023-02-01T04:25:29;5.30;99.90
52203;DHT22;38173;52.850;6.970;2023-02-01T04:28:04;5.30;99.90
52203;DHT22;38173;52.850;6.970;2023-02-01T04:30:38;5.20;99.90
52203;DHT22;38173;52.850;6.970;2023-02-01T04:33:04;5.20;99.90
52203;DHT22;38173;52.850;6.970;2023-02-01T04:35:36;5.20;99.90
52203;DHT22;38173;52.850;6.970;2023-02-01T04:38:02;5.10;99.90
52203;DHT22;38173;52.850;6.970;2023-02-01T04:40:28;5.10;99.90
52203;DHT22;38173;52.850;6.970;2023-02-01T04:42:55;5.10;99.90
52203;DHT22;38173;52.850;6.970;2023-02-01T04:45:21;5.00;99.90
52203;DHT22;38173;52.850;6.970;2023-02-01T04:47:47;5.00;99.90
52203;DHT22;38173;52.850;6.970;2023-02-01T04:50:14;5.00;99.90
52203;DHT22;38173;52.850;6.970;2023-02-01T04:52:39;5.00;99.90
52203;DHT22;38173;52.850;6.970;2023-02-01T04:55:06;5.10;99.90
52203;DHT22;38173;52.850;6.970;2023-02-01T04:57:33;5.10;99.90
52203;DHT22;38173;52.850;6.970;2023-02-01T05:00:00;5.00;99.90
52203;DHT22;38173;52.850;6.970;2023-02-01T05:02:28;5.00;99.90
52203;DHT22;38173;52.850;6.970;2023-02-01T05:04:57;5.10;99.90
52203;DHT22;38173;52.850;6.970;2023-02-01T05:07:23;5.10;99.90
52203;DHT22;38173;52.850;6.970;2023-02-01T05:09:49;5.20;99.90
52203;DHT22;38173;52.850;6.970;2023-02-01T05:12:15;5.20;99.90
52203;DHT22;38173;52.850;6.970;2023-02-01T05:15:17;5.30;99.90
52203;DHT22;38173;52.850;6.970;2023-02-01T05:17:42;5.30;99.90
52203;DHT22;38173;52.850;6.970;2023-02-01T05:20:10;5.40;99.90
52203;DHT22;38173;52.850;6.970;2023-02-01T05:22:36;5.40;99.90
52203;DHT22;38173;52.850;6.970;2023-02-01T05:25:02;5.40;99.90
52203;DHT22;38173;52.850;6.970;2023-02-01T05:27:29;5.30;99.90
52203;DHT22;38173;52.850;6.970;2023-02-01T05:29:54;5.30;99.90
52203;DHT22;38173;52.850;6.970;2023-02-01T05:32:20;5.40;99.90
52203;DHT22;38173;52.850;6.970;2023-02-01T05:34:46;5.40;99.90
52203;DHT22;38173;52.850;6.970;2023-02-01T05:37:12;5.40;99.90
52203;DHT22;38173;52.850;6.970;2023-02-01T05:39:37;5.50;99.90
52203;DHT22;38173;52.850;6.970;2023-02-01T05:42:03;5.50;99.90
52203;DHT22;38173;52.850;6.970;2023-02-01T05:46:58;5.60;99.90
52203;DHT22;38173;52.850;6.970;2023-02-01T05:52:00;5.60;99.90
52203;DHT22;38173;52.850;6.970;2023-02-01T05:54:35;5.60;99.90
52203;DHT22;38173;52.850;6.970;2023-02-01T05:57:01;5.60;99.90
52203;DHT22;38173;52.850;6.970;2023-02-01T05:59:46;5.60;99.90
52203;DHT22;38173;52.850;6.970;2023-02-01T06:02:14;5.60;99.90
52203;DHT22;38173;52.850;6.970;2023-02-01T06:04:40;5.70;99.90
52203;DHT22;38173;52.850;6.970;2023-02-01T06:07:09;5.60;99.90
52203;DHT22;38173;52.850;6.970;2023-02-01T06:09:35;5.70;99.90
52203;DHT22;38173;52.850;6.970;2023-02-01T06:12:04;5.70;99.90
52203;DHT22;38173;52.850;6.970;2023-02-01T06:14:30;5.60;99.90
52203;DHT22;38173;52.850;6.970;2023-02-01T06:16:56;5.70;99.90
52203;DHT22;38173;52.850;6.970;2023-02-01T06:19:22;5.70;99.90
52203;DHT22;38173;52.850;6.970;2023-02-01T06:21:50;5.70;99.90
52203;DHT22;38173;52.850;6.970;2023-02-01T06:24:26;5.70;99.90
52203;DHT22;38173;52.850;6.970;2023-02-01T06:26:52;5.80;99.90
52203;DHT22;38173;52.850;6.970;2023-02-01T06:29:18;5.70;99.90
52203;DHT22;38173;52.850;6.970;2023-02-01T06:31:46;5.80;99.90
52203;DHT22;38173;52.850;6.970;2023-02-01T06:34:15;5.80;99.90
52203;DHT22;38173;52.850;6.970;2023-02-01T06:36:41;5.80;99.90
52203;DHT22;38173;52.850;6.970;2023-02-01T06:39:08;5.80;99.90
52203;DHT22;38173;52.850;6.970;2023-02-01T06:41:47;5.80;99.90
52203;DHT22;38173;52.850;6.970;2023-02-01T06:44:20;5.80;99.90
52203;DHT22;38173;52.850;6.970;2023-02-01T06:46:46;5.80;99.90
52203;DHT22;38173;52.850;6.970;2023-02-01T06:49:16;5.80;99.90
52203;DHT22;38173;52.850;6.970;2023-02-01T06:51:54;5.80;99.90
52203;DHT22;38173;52.850;6.970;2023-02-01T06:54:20;5.80;99.90
52203;DHT22;38173;52.850;6.970;2023-02-01T06:56:45;5.80;99.90
52203;DHT22;38173;52.850;6.970;2023-02-01T06:59:44;5.70;99.90
52203;DHT22;38173;52.850;6.970;2023-02-01T07:02:05;5.70;99.90
52203;DHT22;38173;52.850;6.970;2023-02-01T07:04:31;5.70;99.90
52203;DHT22;38173;52.850;6.970;2023-02-01T07:06:57;5.70;99.90
52203;DHT22;38173;52.850;6.970;2023-02-01T07:09:42;5.70;99.90
52203;DHT22;38173;52.850;6.970;2023-02-01T07:12:08;5.80;99.90
52203;DHT22;38173;52.850;6.970;2023-02-01T07:14:37;5.80;99.90
52203;DHT22;38173;52.850;6.970;2023-02-01T07:17:06;5.80;99.90
52203;DHT22;38173;52.850;6.970;2023-02-01T07:19:32;5.90;99.90
52203;DHT22;38173;52.850;6.970;2023-02-01T07:22:01;5.90;99.90
52203;DHT22;38173;52.850;6.970;2023-02-01T07:24:26;5.90;99.90
52203;DHT22;38173;52.850;6.970;2023-02-01T07:27:05;5.90;99.90
52203;DHT22;38173;52.850;6.970;2023-02-01T07:29:31;5.80;99.90
52203;DHT22;38173;52.850;6.970;2023-02-01T07:32:01;5.80;99.90
52203;DHT22;38173;52.850;6.970;2023-02-01T07:34:28;5.80;99.90
52203;DHT22;38173;52.850;6.970;2023-02-01T07:37:14;5.80;99.90
52203;DHT22;38173;52.850;6.970;2023-02-01T07:39:51;5.80;99.90
52203;DHT22;38173;52.850;6.970;2023-02-01T07:44:54;5.90;99.90
52203;DHT22;38173;52.850;6.970;2023-02-01T07:47:23;5.90;99.90
52203;DHT22;38173;52.850;6.970;2023-02-01T07:50:00;5.90;99.90
52203;DHT22;38173;52.850;6.970;2023-02-01T07:52:29;6.00;99.90
52203;DHT22;38173;52.850;6.970;2023-02-01T07:54:55;5.90;99.90
52203;DHT22;38173;52.850;6.970;2023-02-01T07:57:21;5.90;99.90
52203;DHT22;38173;52.850;6.970;2023-02-01T07:59:48;5.90;99.90
52203;DHT22;38173;52.850;6.970;2023-02-01T08:02:38;5.90;99.90
52203;DHT22;38173;52.850;6.970;2023-02-01T08:05:06;6.00;99.90
52203;DHT22;38173;52.850;6.970;2023-02-01T08:07:32;6.00;99.90
52203;DHT22;38173;52.850;6.970;2023-02-01T08:09:58;6.00;99.90
52203;DHT22;38173;52.850;6.970;2023-02-01T08:12:25;6.00;99.90
52203;DHT22;38173;52.850;6.970;2023-02-01T08:14:52;6.00;99.90
52203;DHT22;38173;52.850;6.970;2023-02-01T08:17:19;6.00;99.90
52203;DHT22;38173;52.850;6.970;2023-02-01T08:19:51;6.00;99.90
52203;DHT22;38173;52.850;6.970;2023-02-01T08:22:18;6.00;99.90
52203;DHT22;38173;52.850;6.970;2023-02-01T08:24:49;6.00;99.90
52203;DHT22;38173;52.850;6.970;2023-02-01T08:27:17;6.10;99.90
52203;DHT22;38173;52.850;6.970;2023-02-01T08:29:58;6.10;99.90
52203;DHT22;38173;52.850;6.970;2023-02-01T08:32:33;6.10;99.90
52203;DHT22;38173;52.850;6.970;2023-02-01T08:35:05;6.10;99.90
52203;DHT22;38173;52.850;6.970;2023-02-01T08:37:31;6.10;99.90
52203;DHT22;38173;52.850;6.970;2023-02-01T08:40:00;6.10;99.90
52203;DHT22;38173;52.850;6.970;2023-02-01T08:42:26;6.10;99.90
52203;DHT22;38173;52.850;6.970;2023-02-01T08:45:22;6.10;99.90
52203;DHT22;38173;52.850;6.970;2023-02-01T08:48:09;6.10;99.90
52203;DHT22;38173;52.850;6.970;2023-02-01T08:50:35;6.10;99.90
52203;DHT22;38173;52.850;6.970;2023-02-01T08:53:01;6.10;99.90
52203;DHT22;38173;52.850;6.970;2023-02-01T08:55:42;6.10;99.90
52203;DHT22;38173;52.850;6.970;2023-02-01T08:58:10;6.10;99.90
52203;DHT22;38173;52.850;6.970;2023-02-01T09:00:46;6.10;99.90
52203;DHT22;38173;52.850;6.970;2023-02-01T09:03:13;6.10;99.90
52203;DHT22;38173;52.850;6.970;2023-02-01T09:05:39;6.10;99.90
52203;DHT22;38173;52.850;6.970;2023-02-01T09:08:06;6.10;99.90
52203;DHT22;38173;52.850;6.970;2023-02-01T09:10:35;6.10;99.90
52203;DHT22;38173;52.850;6.970;2023-02-01T09:13:02;6.10;99.90
52203;DHT22;38173;52.850;6.970;2023-02-01T09:15:28;6.10;99.90
52203;DHT22;38173;52.850;6.970;2023-02-01T09:17:54;6.20;99.90
52203;DHT22;38173;52.850;6.970;2023-02-01T09:20:20;6.20;99.90
52203;DHT22;38173;52.850;6.970;2023-02-01T09:22:52;6.20;99.90
52203;DHT22;38173;52.850;6.970;2023-02-01T09:25:21;6.20;99.90
52203;DHT22;38173;52.850;6.970;2023-02-01T09:27:50;6.20;99.90
52203;DHT22;38173;52.850;6.970;2023-02-01T09:30:20;6.20;99.90
52203;DHT22;38173;52.850;6.970;2023-02-01T09:32:55;6.10;99.90
52203;DHT22;38173;52.850;6.970;2023-02-01T09:35:21;6.20;99.90
52203;DHT22;38173;52.850;6.970;2023-02-01T09:37:55;6.20;99.90
52203;DHT22;38173;52.850;6.970;2023-02-01T09:40:28;6.20;99.90
52203;DHT22;38173;52.850;6.970;2023-02-01T09:45:49;6.20;99.90
52203;DHT22;38173;52.850;6.970;2023-02-01T09:48:21;6.20;99.90
52203;DHT22;38173;52.850;6.970;2023-02-01T09:50:53;6.20;99.90
52203;DHT22;38173;52.850;6.970;2023-02-01T09:53:27;6.20;99.90
52203;DHT22;38173;52.850;6.970;2023-02-01T09:56:29;6.20;99.90
52203;DHT22;38173;52.850;6.970;2023-02-01T10:01:22;6.20;99.90
52203;DHT22;38173;52.850;6.970;2023-02-01T10:04:01;6.20;99.90
52203;DHT22;38173;52.850;6.970;2023-02-01T10:11:51;6.00;99.90
52203;DHT22;38173;52.850;6.970;2023-02-01T10:22:39;5.70;99.90
52203;DHT22;38173;52.850;6.970;2023-02-01T10:25:19;5.60;99.90
52203;DHT22;38173;52.850;6.970;2023-02-01T10:27:46;5.50;99.90
52203;DHT22;38173;52.850;6.970;2023-02-01T10:32:38;5.40;99.90
52203;DHT22;38173;52.850;6.970;2023-02-01T10:35:13;5.40;99.90
52203;DHT22;38173;52.850;6.970;2023-02-01T10:37:46;5.30;99.90
52203;DHT22;38173;52.850;6.970;2023-02-01T10:40:16;5.30;99.90
52203;DHT22;38173;52.850;6.970;2023-02-01T10:42:46;5.30;99.90
52203;DHT22;38173;52.850;6.970;2023-02-01T10:45:19;5.30;99.90
52203;DHT22;38173;52.850;6.970;2023-02-01T10:47:46;5.30;99.90
52203;DHT22;38173;52.850;6.970;2023-02-01T10:53:00;5.40;99.90
52203;DHT22;38173;52.850;6.970;2023-02-01T10:55:45;5.40;99.90
52203;DHT22;38173;52.850;6.970;2023-02-01T10:58:25;5.30;99.90
52203;DHT22;38173;52.850;6.970;2023-02-01T11:00:58;5.30;99.90
52203;DHT22;38173;52.850;6.970;2023-02-01T11:03:32;5.30;99.90
52203;DHT22;38173;52.850;6.970;2023-02-01T11:06:01;5.30;99.90
52203;DHT22;38173;52.850;6.970;2023-02-01T11:08:50;5.30;99.90
52203;DHT22;38173;52.850;6.970;2023-02-01T11:11:17;5.30;99.90
52203;DHT22;38173;52.850;6.970;2023-02-01T11:13:43;5.30;99.90
52203;DHT22;38173;52.850;6.970;2023-02-01T11:16:11;5.40;99.90
52203;DHT22;38173;52.850;6.970;2023-02-01T11:18:43;5.50;99.90
52203;DHT22;38173;52.850;6.970;2023-02-01T11:21:12;5.50;99.90
52203;DHT22;38173;52.850;6.970;2023-02-01T11:23:54;5.60;99.90
52203;DHT22;38173;52.850;6.970;2023-02-01T11:26:24;5.60;99.90
52203;DHT22;38173;52.850;6.970;2023-02-01T11:29:04;5.70;99.90
52203;DHT22;38173;52.850;6.970;2023-02-01T11:31:34;5.60;99.90
52203;DHT22;38173;52.850;6.970;2023-02-01T11:34:04;5.70;99.90
52203;DHT22;38173;52.850;6.970;2023-02-01T11:36:32;5.70;99.90
52203;DHT22;38173;52.850;6.970;2023-02-01T11:42:11;5.70;99.90
52203;DHT22;38173;52.850;6.970;2023-02-01T11:44:39;5.70;99.90
52203;DHT22;38173;52.850;6.970;2023-02-01T11:49:58;5.80;99.90
52203;DHT22;38173;52.850;6.970;2023-02-01T11:58:13;5.90;99.90
52203;DHT22;38173;52.850;6.970;2023-02-01T12:08:40;5.80;99.90
52203;DHT22;38173;52.850;6.970;2023-02-01T12:16:08;6.00;99.90
52203;DHT22;38173;52.850;6.970;2023-02-01T12:18:44;5.90;99.90
52203;DHT22;38173;52.850;6.970;2023-02-01T12:28:38;6.30;99.90
52203;DHT22;38173;52.850;6.970;2023-02-01T12:37:14;6.50;99.90
52203;DHT22;38173;52.850;6.970;2023-02-01T12:42:31;6.60;99.90
52203;DHT22;38173;52.850;6.970;2023-02-01T12:44:50;6.60;99.90
52203;DHT22;38173;52.850;6.970;2023-02-01T12:55:23;6.50;99.90
52203;DHT22;38173;52.850;6.970;2023-02-01T12:57:56;6.60;99.90
52203;DHT22;38173;52.850;6.970;2023-02-01T13:00:41;6.70;99.90
52203;DHT22;38173;52.850;6.970;2023-02-01T13:03:24;7.00;99.90
52203;DHT22;38173;52.850;6.970;2023-02-01T13:06:01;7.20;99.90
52203;DHT22;38173;52.850;6.970;2023-02-01T13:16:38;7.30;99.90
52203;DHT22;38173;52.850;6.970;2023-02-01T13:19:09;7.20;99.90
52203;DHT22;38173;52.850;6.970;2023-02-01T13:21:39;7.10;99.90
52203;DHT22;38173;52.850;6.970;2023-02-01T13:24:07;7.00;99.90
52203;DHT22;38173;52.850;6.970;2023-02-01T13:26:43;6.90;99.90
52203;DHT22;38173;52.850;6.970;2023-02-01T13:29:09;6.80;99.90
52203;DHT22;38173;52.850;6.970;2023-02-01T13:31:42;6.80;99.90
52203;DHT22;38173;52.850;6.970;2023-02-01T13:42:51;7.10;99.90
52203;DHT22;38173;52.850;6.970;2023-02-01T13:48:06;7.10;99.90
52203;DHT22;38173;52.850;6.970;2023-02-01T13:50:49;7.30;99.90
52203;DHT22;38173;52.850;6.970;2023-02-01T13:53:22;7.20;99.90
52203;DHT22;38173;52.850;6.970;2023-02-01T13:55:56;7.20;99.90
52203;DHT22;38173;52.850;6.970;2023-02-01T13:58:39;7.10;99.90
52203;DHT22;38173;52.850;6.970;2023-02-01T14:04:45;7.00;99.90
52203;DHT22;38173;52.850;6.970;2023-02-01T14:06:58;7.00;99.90
52203;DHT22;38173;52.850;6.970;2023-02-01T14:09:32;7.10;99.90
52203;DHT22;38173;52.850;6.970;2023-02-01T14:14:47;7.20;99.90
52203;DHT22;38173;52.850;6.970;2023-02-01T14:17:37;7.20;99.90
52203;DHT22;38173;52.850;6.970;2023-02-01T14:22:48;7.30;99.90
52203;DHT22;38173;52.850;6.970;2023-02-01T14:25:18;7.20;99.90
52203;DHT22;38173;52.850;6.970;2023-02-01T14:27:53;7.20;99.90
52203;DHT22;38173;52.850;6.970;2023-02-01T14:30:30;7.20;99.90
52203;DHT22;38173;52.850;6.970;2023-02-01T14:32:59;7.20;99.90
52203;DHT22;38173;52.850;6.970;2023-02-01T14:35:28;7.20;99.90
52203;DHT22;38173;52.850;6.970;2023-02-01T14:38:15;7.30;99.90
52203;DHT22;38173;52.850;6.970;2023-02-01T14:40:40;7.40;99.90
52203;DHT22;38173;52.850;6.970;2023-02-01T14:43:07;7.30;99.90
52203;DHT22;38173;52.850;6.970;2023-02-01T14:56:06;7.30;99.90
52203;DHT22;38173;52.850;6.970;2023-02-01T15:06:41;7.20;99.90
52203;DHT22;38173;52.850;6.970;2023-02-01T15:14:36;7.00;99.90
52203;DHT22;38173;52.850;6.970;2023-02-01T15:17:03;7.00;99.90
52203;DHT22;38173;52.850;6.970;2023-02-01T15:20:00;7.00;99.90
52203;DHT22;38173;52.850;6.970;2023-02-01T15:22:28;7.00;99.90
52203;DHT22;38173;52.850;6.970;2023-02-01T15:24:59;7.10;99.90
52203;DHT22;38173;52.850;6.970;2023-02-01T15:27:36;7.00;99.90
52203;DHT22;38173;52.850;6.970;2023-02-01T15:30:36;7.00;99.90
52203;DHT22;38173;52.850;6.970;2023-02-01T15:35:43;6.90;99.90
52203;DHT22;38173;52.850;6.970;2023-02-01T15:43:27;6.80;99.90
52203;DHT22;38173;52.850;6.970;2023-02-01T15:45:58;6.80;99.90
52203;DHT22;38173;52.850;6.970;2023-02-01T15:48:25;6.80;99.90
52203;DHT22;38173;52.850;6.970;2023-02-01T15:50:52;6.80;99.90
52203;DHT22;38173;52.850;6.970;2023-02-01T15:53:38;6.80;99.90
52203;DHT22;38173;52.850;6.970;2023-02-01T15:56:06;6.70;99.90
52203;DHT22;38173;52.850;6.970;2023-02-01T15:58:40;6.70;99.90
52203;DHT22;38173;52.850;6.970;2023-02-01T16:01:06;6.80;99.90
52203;DHT22;38173;52.850;6.970;2023-02-01T16:03:40;6.90;99.90
52203;DHT22;38173;52.850;6.970;2023-02-01T16:06:26;6.90;99.90
52203;DHT22;38173;52.850;6.970;2023-02-01T16:09:14;6.80;99.90
52203;DHT22;38173;52.850;6.970;2023-02-01T16:14:19;6.80;99.90
52203;DHT22;38173;52.850;6.970;2023-02-01T16:16:45;6.80;99.90
52203;DHT22;38173;52.850;6.970;2023-02-01T16:19:14;6.80;99.90
52203;DHT22;38173;52.850;6.970;2023-02-01T16:21:41;6.80;99.90
52203;DHT22;38173;52.850;6.970;2023-02-01T16:24:27;6.80;99.90
52203;DHT22;38173;52.850;6.970;2023-02-01T16:26:57;6.80;99.90
52203;DHT22;38173;52.850;6.970;2023-02-01T16:29:23;6.70;99.90
52203;DHT22;38173;52.850;6.970;2023-02-01T16:31:51;6.70;99.90
52203;DHT22;38173;52.850;6.970;2023-02-01T16:34:18;6.70;99.90
52203;DHT22;38173;52.850;6.970;2023-02-01T16:36:48;6.60;99.90
52203;DHT22;38173;52.850;6.970;2023-02-01T16:39:17;6.70;99.90
52203;DHT22;38173;52.850;6.970;2023-02-01T16:41:43;6.70;99.90
52203;DHT22;38173;52.850;6.970;2023-02-01T16:44:10;6.60;99.90
52203;DHT22;38173;52.850;6.970;2023-02-01T16:46:40;6.70;99.90
52203;DHT22;38173;52.850;6.970;2023-02-01T16:49:08;6.70;99.90
52203;DHT22;38173;52.850;6.970;2023-02-01T16:51:40;6.70;99.90
52203;DHT22;38173;52.850;6.970;2023-02-01T16:54:07;6.70;99.90
52203;DHT22;38173;52.850;6.970;2023-02-01T16:56:33;6.70;99.90
52203;DHT22;38173;52.850;6.970;2023-02-01T16:58:59;6.70;99.90
52203;DHT22;38173;52.850;6.970;2023-02-01T17:01:25;6.70;99.90
52203;DHT22;38173;52.850;6.970;2023-02-01T17:03:50;6.60;99.90
52203;DHT22;38173;52.850;6.970;2023-02-01T17:06:20;6.60;99.90
52203;DHT22;38173;52.850;6.970;2023-02-01T17:08:51;6.60;99.90
52203;DHT22;38173;52.850;6.970;2023-02-01T17:11:17;6.60;99.90
52203;DHT22;38173;52.850;6.970;2023-02-01T17:13:43;6.50;99.90
52203;DHT22;38173;52.850;6.970;2023-02-01T17:16:30;6.50;99.90
52203;DHT22;38173;52.850;6.970;2023-02-01T17:19:01;6.50;99.90
52203;DHT22;38173;52.850;6.970;2023-02-01T17:21:28;6.40;99.90
52203;DHT22;38173;52.850;6.970;2023-02-01T17:23:54;6.40;99.90
52203;DHT22;38173;52.850;6.970;2023-02-01T17:26:20;6.40;99.90
52203;DHT22;38173;52.850;6.970;2023-02-01T17:28:46;6.30;99.90
52203;DHT22;38173;52.850;6.970;2023-02-01T17:31:15;6.20;99.90
52203;DHT22;38173;52.850;6.970;2023-02-01T17:33:41;6.20;99.90
52203;DHT22;38173;52.850;6.970;2023-02-01T17:36:14;6.20;99.90
52203;DHT22;38173;52.850;6.970;2023-02-01T17:38:40;6.20;99.90
52203;DHT22;38173;52.850;6.970;2023-02-01T17:41:06;6.20;99.90
52203;DHT22;38173;52.850;6.970;2023-02-01T17:43:37;6.20;99.90
52203;DHT22;38173;52.850;6.970;2023-02-01T17:46:10;6.20;99.90
52203;DHT22;38173;52.850;6.970;2023-02-01T17:48:54;6.30;99.90
52203;DHT22;38173;52.850;6.970;2023-02-01T17:51:21;6.20;99.90
52203;DHT22;38173;52.850;6.970;2023-02-01T17:53:47;6.20;99.90
52203;DHT22;38173;52.850;6.970;2023-02-01T17:56:17;6.20;99.90
52203;DHT22;38173;52.850;6.970;2023-02-01T17:58:43;6.20;99.90
52203;DHT22;38173;52.850;6.970;2023-02-01T18:01:21;6.10;99.90
52203;DHT22;38173;52.850;6.970;2023-02-01T18:03:47;6.10;99.90
52203;DHT22;38173;52.850;6.970;2023-02-01T18:06:31;6.10;99.90
52203;DHT22;38173;52.850;6.970;2023-02-01T18:08:59;6.10;99.90
52203;DHT22;38173;52.850;6.970;2023-02-01T18:11:24;6.10;99.90
52203;DHT22;38173;52.850;6.970;2023-02-01T18:13:51;6.00;99.90
52203;DHT22;38173;52.850;6.970;2023-02-01T18:18:45;6.00;99.90
52203;DHT22;38173;52.850;6.970;2023-02-01T18:21:12;6.00;99.90
52203;DHT22;38173;52.850;6.970;2023-02-01T18:23:37;6.00;99.90
52203;DHT22;38173;52.850;6.970;2023-02-01T18:26:03;6.00;99.90
52203;DHT22;38173;52.850;6.970;2023-02-01T18:28:29;5.90;99.90
52203;DHT22;38173;52.850;6.970;2023-02-01T18:30:54;5.90;99.90
52203;DHT22;38173;52.850;6.970;2023-02-01T18:33:21;5.90;99.90
52203;DHT22;38173;52.850;6.970;2023-02-01T18:35:46;5.80;99.90
52203;DHT22;38173;52.850;6.970;2023-02-01T18:38:12;5.80;99.90
52203;DHT22;38173;52.850;6.970;2023-02-01T18:40:42;5.80;99.90
52203;DHT22;38173;52.850;6.970;2023-02-01T18:43:09;5.80;99.90
52203;DHT22;38173;52.850;6.970;2023-02-01T18:45:40;5.70;99.90
52203;DHT22;38173;52.850;6.970;2023-02-01T18:48:07;5.70;99.90
52203;DHT22;38173;52.850;6.970;2023-02-01T18:50:34;5.70;99.90
52203;DHT22;38173;52.850;6.970;2023-02-01T18:53:01;5.70;99.90
52203;DHT22;38173;52.850;6.970;2023-02-01T18:55:27;5.70;99.90
52203;DHT22;38173;52.850;6.970;2023-02-01T18:57:53;5.60;99.90
52203;DHT22;38173;52.850;6.970;2023-02-01T19:00:19;5.60;99.90
52203;DHT22;38173;52.850;6.970;2023-02-01T19:02:46;5.60;99.90